- বাংলা English

 ****Phone:+880 2 9135742, 9123838, 9141437 | Fax: +880 2 8118230, 9119230, 9103908 | E-mail: info@bmd.gov.bd , swc@bmd.gov.bd   | IVR: 1090 |

TAF


VGHS 192300Z 2000/2106 00000KT 1000MIFG SCT010
                   TEMPO 2000/2003 00000KT 0800FG BKN008
                   BECMG 2003/2005 33004KT 1500BR SCT015
                   BECMG 2005/2007 31006KT 2500HZ NSC
                   BECMG 2007/2009 29008KT 3500HZ
                   BECMG 2018/2020 VRB03KT 2500BR
                   BECMG 2022/2024 00000KT 1000MIFG SCT010
                   BECMG 2100/2102 0600FG BKN008
                   BECMG 2103/2105 34004KT 1500BR SCT015 =

TAF VGSY 191000Z 1912/2018 30005KT 4000HZ SCT150
       BECMG 1918/1920 04005KT 2500BR SCT012
       BECMG 1923/2001 00000KT 1000MIFG BKN007
       BECMG 2003/2005 10005KT 3000HZ/BR NSC=

TAF VGEG 191100Z 1912/2018 35007KT 4000 HZ NSC
       BECMG 1918/1920 00000KT 2000 BR SCT015
       BECMG 1922/1924 02005KT 1500 BR SCT012
       TEMPO 1923/2003 00000KT 0800 FG BKN006
       BECMG 2004/2006 35006KT 3100 HZ NSC
       BECMG 2014/2016 35008KT 4000 HZ NSC=